메인 페이지
METAR-TAF:

METAR-TAF

공항 :

비라코푸스 캄피나스 국제공항

캄피나스, 상파울루, 브라질

위도: 23-00S, 경도: 047-08W, 고도: 661m

현재 날씨관측

예보는 41분 전, 01:00시(UTC)에 발표되었습니다.
5kt
온도 25°C
습도 65%
기압 1013 hPa
시정 10km 이상
1500m 미만 상공 구름 및 적란운 없음

METAR: SBKP 030100Z 35005KT CAVOK 25/18 Q1013

시각: 22:41 (01:41 UTC)

예보

예보는 3 시간 41분 전, 22:00시(UTC)에 발표되었습니다.
예보 대상 시간: 03일 00시부터 03일 24시까지 (UTC)
서북서7kt
시정 10km 이상
고도 4500ft 상공 구름 조금
확률 40%
03일 07시부터 03일 11시까지 (UTC)
시정: 6000m
고도 1500ft 상공 구름 많음
고도 4000ft 상공 구름 조금, 타워링 적운.
소나기
전환 중
03일 11시부터 03일 13시까지 (UTC)
서북서12kt
고도 3500ft 상공 구름 조금
전환 중
03일 15시부터 03일 17시까지 (UTC)
고도 4000ft 상공 구름 보통
고도 4500ft 상공 구름 조금, 타워링 적운.
전환 중
03일 18시부터 03일 20시까지 (UTC)
남서10kt
고도 4000ft 상공 구름 보통
전환 중
03일 21시부터 03일 23시까지 (UTC)
남남동10kt
고도 2000ft 상공 구름 조금

TAF: SBKP 022200Z 0300/0324 29007KT 9999 FEW045 TN20/0309Z TX26/0317Z PROB40 0307/0311 6000 SHRA BKN015 FEW040TCU BECMG 0311/0313 29012KT FEW035 BECMG 0315/0317 SCT040 FEW045TCU BECMG 0318/0320 22010KT SCT040 BECMG 0321/0323 16010KT FEW020 RMK PHH

4,000개 이상의 공항 관측 자료 및 예보 (METAR 및 TAF 보고).

지도상에서 검색 가능한 기상관측소가 노란 점과 빨간 점으로 표시되어 있습니다.

기상관측소 명을 보려면 표시 위로 마우스를 이동하세요.

날씨 관측과 예보를 보려면 클릭하세요.

지도 변경 : 확대하려면 엑스 표시가 있는 녹색 버튼, 축소하려면 빼기 표시가 있는 녹색 버튼, 다음 페이지의 지도를 보려면 녹색 화살표를 클릭하세요.


METAR-TAF: